Time;durP1;ratioP1;P1;durP2;ratioP2;P2;SDS_P1;SDS_P2;PMS_P1;PMS_P2;Temp;Humidity;BMP_temperature;BMP_pressure;BME280_temperature;BME280_humidity;BME280_pressure;Samples;Min_cycle;Max_cycle;Signal;HPM_P1;HPM_P2
2022/04/04 00:00:06;;;;;;;5.20;4.80;;;;;;;;;;5073272;28;24781;-53
2022/04/04 00:02:31;;;;;;;5.60;5.10;;;;;;;;;;5070489;28;24948;-53
2022/04/04 00:04:56;;;;;;;5.47;5.00;;;;;;;;;;5069519;28;24469;-52
2022/04/04 00:07:21;;;;;;;5.50;5.00;;;;;;;;;;5084159;28;24422;-53
2022/04/04 00:09:46;;;;;;;5.32;4.90;;;;;;;;;;5076188;28;24426;-52
2022/04/04 00:12:12;;;;;;;5.30;4.83;;;;;;;;;;5085284;28;24459;-53
2022/04/04 00:14:37;;;;;;;5.40;4.90;;;;;;;;;;5078295;28;24761;-53
2022/04/04 00:17:02;;;;;;;5.30;4.83;;;;;;;;;;5078122;28;24445;-53
2022/04/04 00:19:28;;;;;;;4.80;4.40;;;;;;;;;;5084375;28;24976;-54
2022/04/04 00:21:53;;;;;;;6.27;5.43;;;;;;;;;;5068164;28;24588;-52
2022/04/04 00:24:18;;;;;;;5.40;5.00;;;;;;;;;;5076046;28;24410;-53
2022/04/04 00:26:43;;;;;;;5.05;4.65;;;;;;;;;;5070460;28;24423;-53
2022/04/04 00:29:09;;;;;;;5.00;4.60;;;;;;;;;;5073375;28;24570;-52
2022/04/04 00:31:34;;;;;;;5.30;4.90;;;;;;;;;;5070453;28;24426;-53
2022/04/04 00:34:00;;;;;;;5.00;4.67;;;;;;;;;;5068950;28;24556;-52
2022/04/04 00:36:25;;;;;;;6.20;5.70;;;;;;;;;;5084534;28;24402;-52
2022/04/04 00:38:50;;;;;;;6.30;4.97;;;;;;;;;;5074544;28;24433;-52
2022/04/04 00:41:15;;;;;;;5.40;4.90;;;;;;;;;;5077110;28;24831;-53
2022/04/04 00:43:41;;;;;;;5.50;5.00;;;;;;;;;;5086572;28;24406;-55
2022/04/04 00:46:06;;;;;;;5.40;4.90;;;;;;;;;;5080718;28;24411;-53
2022/04/04 00:48:31;;;;;;;4.80;4.40;;;;;;;;;;5068676;28;24504;-53
2022/04/04 00:50:56;;;;;;;5.37;4.90;;;;;;;;;;5074396;28;24682;-53
2022/04/04 00:53:22;;;;;;;5.23;4.73;;;;;;;;;;5069030;28;24460;-53
2022/04/04 00:55:48;;;;;;;5.45;4.95;;;;;;;;;;5077695;28;24722;-52
2022/04/04 00:58:14;;;;;;;5.65;4.65;;;;;;;;;;5084249;28;24410;-53
2022/04/04 01:00:41;;;;;;;5.80;5.20;;;;;;;;;;5083237;28;24480;-52
2022/04/04 01:03:06;;;;;;;5.33;4.93;;;;;;;;;;5073965;28;24472;-53
2022/04/04 01:05:31;;;;;;;4.90;4.50;;;;;;;;;;5075338;28;24399;-52
2022/04/04 01:07:56;;;;;;;5.00;4.60;;;;;;;;;;5067374;28;24391;-53
2022/04/04 01:10:21;;;;;;;6.50;4.72;;;;;;;;;;5068741;28;24502;-53
2022/04/04 01:12:53;;;;;;;5.23;4.73;;;;;;;;;;5078867;28;24415;-53
2022/04/04 01:15:19;;;;;;;5.30;4.90;;;;;;;;;;5063369;28;24973;-52
2022/04/04 01:17:45;;;;;;;4.80;4.40;;;;;;;;;;5068336;28;24479;-53
2022/04/04 01:20:11;;;;;;;4.80;4.47;;;;;;;;;;5067378;28;25083;-52
2022/04/04 01:22:36;;;;;;;5.23;4.73;;;;;;;;;;5073849;28;24505;-53
2022/04/04 01:25:05;;;;;;;5.47;4.60;;;;;;;;;;5068279;28;24497;-52
2022/04/04 01:27:30;;;;;;;5.40;4.90;;;;;;;;;;5077518;28;24410;-53
2022/04/04 01:29:55;;;;;;;5.00;4.50;;;;;;;;;;5067646;28;24425;-53
2022/04/04 01:32:20;;;;;;;4.93;4.53;;;;;;;;;;5070405;28;24486;-53
2022/04/04 01:34:45;;;;;;;5.03;4.50;;;;;;;;;;5069327;28;24404;-52
2022/04/04 01:37:11;;;;;;;5.20;4.80;;;;;;;;;;5086785;28;24433;-53
2022/04/04 01:39:36;;;;;;;4.90;4.50;;;;;;;;;;5075331;28;24956;-53
2022/04/04 01:42:01;;;;;;;5.40;4.90;;;;;;;;;;5086744;28;24473;-53
2022/04/04 01:44:26;;;;;;;5.20;4.80;;;;;;;;;;5070468;28;24423;-52
2022/04/04 01:46:51;;;;;;;5.40;5.00;;;;;;;;;;5079356;28;24425;-53
2022/04/04 01:49:16;;;;;;;6.80;5.20;;;;;;;;;;5076718;28;24499;-53
2022/04/04 01:51:42;;;;;;;5.90;5.35;;;;;;;;;;5078246;28;24952;-53
2022/04/04 01:54:07;;;;;;;5.67;5.27;;;;;;;;;;5081876;28;25122;-52
2022/04/04 01:56:33;;;;;;;5.90;5.40;;;;;;;;;;5070012;28;24426;-53
2022/04/04 01:58:59;;;;;;;5.28;4.88;;;;;;;;;;5072243;28;24418;-53
2022/04/04 02:01:24;;;;;;;5.10;4.70;;;;;;;;;;5078512;28;24440;-52
2022/04/04 02:03:51;;;;;;;5.10;4.70;;;;;;;;;;5080884;28;24423;-53
2022/04/04 02:06:18;;;;;;;5.57;5.07;;;;;;;;;;5072334;28;24414;-52
2022/04/04 02:08:44;;;;;;;5.90;5.40;;;;;;;;;;5066231;28;24976;-53
2022/04/04 02:11:09;;;;;;;5.57;5.13;;;;;;;;;;5070466;28;24419;-52
2022/04/04 02:13:34;;;;;;;5.50;5.10;;;;;;;;;;5074057;28;24414;-53
2022/04/04 02:16:01;;;;;;;5.70;5.20;;;;;;;;;;5080462;28;24429;-53
2022/04/04 02:18:26;;;;;;;5.85;5.35;;;;;;;;;;5073106;28;25054;-52
2022/04/04 02:20:51;;;;;;;5.30;4.90;;;;;;;;;;5071713;28;24463;-53
2022/04/04 02:23:18;;;;;;;5.55;5.07;;;;;;;;;;5072298;28;24466;-53
2022/04/04 02:25:45;;;;;;;5.43;5.03;;;;;;;;;;5076433;28;24760;-53
2022/04/04 02:28:11;;;;;;;5.90;5.35;;;;;;;;;;5083464;28;25523;-53
2022/04/04 02:30:36;;;;;;;5.70;5.20;;;;;;;;;;5083207;28;24487;-52
2022/04/04 02:33:01;;;;;;;5.60;5.10;;;;;;;;;;5073549;28;24517;-53
2022/04/04 02:35:27;;;;;;;5.90;5.30;;;;;;;;;;5070021;28;24445;-52
2022/04/04 02:37:52;;;;;;;5.10;4.70;;;;;;;;;;5071109;28;24964;-52
2022/04/04 02:40:18;;;;;;;5.40;5.00;;;;;;;;;;5087548;28;24430;-52
2022/04/04 02:42:43;;;;;;;5.30;4.90;;;;;;;;;;5076915;28;25225;-52
2022/04/04 02:45:08;;;;;;;5.40;4.90;;;;;;;;;;5081197;28;24449;-52
2022/04/04 02:47:33;;;;;;;5.20;4.80;;;;;;;;;;5069898;28;24491;-53
2022/04/04 02:49:58;;;;;;;5.50;5.00;;;;;;;;;;5082697;28;24475;-52
2022/04/04 02:52:23;;;;;;;5.20;4.80;;;;;;;;;;5076216;28;24874;-53
2022/04/04 02:54:49;;;;;;;6.43;5.88;;;;;;;;;;5089015;28;24509;-53
2022/04/04 02:57:16;;;;;;;5.63;5.20;;;;;;;;;;5080567;28;24956;-53
2022/04/04 02:59:41;;;;;;;5.53;5.03;;;;;;;;;;5071536;28;24506;-53
2022/04/04 03:02:06;;;;;;;5.60;5.20;;;;;;;;;;5073351;28;24853;-53
2022/04/04 03:04:31;;;;;;;5.30;4.80;;;;;;;;;;5070539;28;24457;-53
2022/04/04 03:06:57;;;;;;;5.70;5.20;;;;;;;;;;5073078;28;24935;-53
2022/04/04 03:09:22;;;;;;;5.40;4.65;;;;;;;;;;5077595;28;24958;-53
2022/04/04 03:11:47;;;;;;;4.90;4.50;;;;;;;;;;5083207;28;25151;-53
2022/04/04 03:14:12;;;;;;;5.50;5.10;;;;;;;;;;5070286;28;24426;-52
2022/04/04 03:16:38;;;;;;;5.40;5.00;;;;;;;;;;5077126;28;24419;-53
2022/04/04 03:19:03;;;;;;;5.60;5.10;;;;;;;;;;5069448;28;24987;-53
2022/04/04 03:21:28;;;;;;;5.05;4.65;;;;;;;;;;5073354;28;24431;-53
2022/04/04 03:23:54;;;;;;;5.60;5.10;;;;;;;;;;5073187;28;24415;-53
2022/04/04 03:26:19;;;;;;;5.80;5.30;;;;;;;;;;5080277;28;25004;-54
2022/04/04 03:28:45;;;;;;;5.47;4.88;;;;;;;;;;5074803;28;25057;-53
2022/04/04 03:31:11;;;;;;;5.32;4.78;;;;;;;;;;5077318;28;24418;-53
2022/04/04 03:33:38;;;;;;;5.20;4.70;;;;;;;;;;5070561;28;24423;-52
2022/04/04 03:36:03;;;;;;;5.23;4.73;;;;;;;;;;5074589;28;24422;-52
2022/04/04 03:38:28;;;;;;;5.97;5.13;;;;;;;;;;5074584;28;24489;-53
2022/04/04 03:40:53;;;;;;;5.80;5.30;;;;;;;;;;5085515;28;24430;-53
2022/04/04 03:43:19;;;;;;;5.28;4.60;;;;;;;;;;5071333;28;24541;-53
2022/04/04 03:45:44;;;;;;;5.40;5.00;;;;;;;;;;5086774;28;24457;-52
2022/04/04 03:48:09;;;;;;;5.00;4.60;;;;;;;;;;5083509;28;24413;-53
2022/04/04 03:50:35;;;;;;;5.33;4.83;;;;;;;;;;5073556;28;24422;-53
2022/04/04 03:53:00;;;;;;;5.40;4.90;;;;;;;;;;5084720;28;24726;-52
2022/04/04 03:55:27;;;;;;;5.40;4.90;;;;;;;;;;5073810;28;24517;-54
2022/04/04 03:57:52;;;;;;;5.50;5.00;;;;;;;;;;5081667;28;24457;-53
2022/04/04 04:00:18;;;;;;;5.47;5.07;;;;;;;;;;5073462;28;24863;-53
2022/04/04 04:02:44;;;;;;;5.35;4.85;;;;;;;;;;5080828;28;24414;-52
2022/04/04 04:05:09;;;;;;;5.40;4.90;;;;;;;;;;5086063;28;24422;-52
2022/04/04 04:07:34;;;;;;;5.13;4.73;;;;;;;;;;5086274;28;24563;-52
2022/04/04 04:10:00;;;;;;;6.03;5.43;;;;;;;;;;5069603;28;24425;-52
2022/04/04 04:12:25;;;;;;;5.47;5.07;;;;;;;;;;5069209;28;24523;-52
2022/04/04 04:14:52;;;;;;;6.10;5.40;;;;;;;;;;5086087;28;24410;-52
2022/04/04 04:17:18;;;;;;;5.55;5.03;;;;;;;;;;5069540;28;24438;-53
2022/04/04 04:22:28;;;;;;;5.78;5.28;;;;;;;;;;5074473;28;24386;-53
2022/04/04 04:24:53;;;;;;;6.30;5.30;;;;;;;;;;5079069;28;24418;-53
2022/04/04 04:27:18;;;;;;;6.10;5.60;;;;;;;;;;5072879;28;25005;-54
2022/04/04 04:29:43;;;;;;;5.93;5.43;;;;;;;;;;5074124;28;24482;-53
2022/04/04 04:32:09;;;;;;;6.10;5.60;;;;;;;;;;5077422;28;24491;-53
2022/04/04 04:34:34;;;;;;;6.20;5.70;;;;;;;;;;5086365;28;24434;-52
2022/04/04 04:37:00;;;;;;;6.90;6.20;;;;;;;;;;5077658;28;24411;-53
2022/04/04 04:39:25;;;;;;;6.97;6.10;;;;;;;;;;5065647;28;24418;-53
2022/04/04 04:41:50;;;;;;;8.60;6.53;;;;;;;;;;5072580;28;24549;-52
2022/04/04 04:44:15;;;;;;;6.23;5.73;;;;;;;;;;5073060;28;25103;-53
2022/04/04 04:46:40;;;;;;;7.10;6.40;;;;;;;;;;5071520;28;24457;-54
2022/04/04 04:49:05;;;;;;;6.97;6.37;;;;;;;;;;5085526;28;24960;-53
2022/04/04 04:51:31;;;;;;;8.80;7.00;;;;;;;;;;5071517;28;24485;-54
2022/04/04 04:53:56;;;;;;;7.57;6.88;;;;;;;;;;5070088;28;24977;-53
2022/04/04 04:56:21;;;;;;;7.10;6.50;;;;;;;;;;5068594;28;24555;-53
2022/04/04 04:58:46;;;;;;;7.82;7.13;;;;;;;;;;5064158;28;24409;-52
2022/04/04 05:01:11;;;;;;;6.80;6.30;;;;;;;;;;5078059;28;24587;-52
2022/04/04 05:03:37;;;;;;;7.10;6.50;;;;;;;;;;5069693;28;24430;-53
2022/04/04 05:06:02;;;;;;;6.60;6.10;;;;;;;;;;5065371;28;24979;-53
2022/04/04 05:08:27;;;;;;;7.67;6.93;;;;;;;;;;5062621;28;24883;-53
2022/04/04 05:10:53;;;;;;;8.18;7.35;;;;;;;;;;5065129;28;24879;-53
2022/04/04 05:13:18;;;;;;;7.20;6.40;;;;;;;;;;5067011;28;25110;-52
2022/04/04 05:15:44;;;;;;;7.65;6.90;;;;;;;;;;5079398;28;24417;-53
2022/04/04 05:18:09;;;;;;;7.20;6.60;;;;;;;;;;5076846;28;24509;-52
2022/04/04 05:20:34;;;;;;;7.90;6.50;;;;;;;;;;5067694;28;24648;-54
2022/04/04 05:22:59;;;;;;;8.00;7.30;;;;;;;;;;5069390;28;24411;-53
2022/04/04 05:25:24;;;;;;;7.40;6.80;;;;;;;;;;5079057;28;24448;-53
2022/04/04 05:27:50;;;;;;;7.10;6.50;;;;;;;;;;5087295;28;24503;-53
2022/04/04 05:30:16;;;;;;;7.18;6.57;;;;;;;;;;5086695;28;24391;-53
2022/04/04 05:32:41;;;;;;;7.60;7.00;;;;;;;;;;5087501;28;24586;-53
2022/04/04 05:35:07;;;;;;;8.20;7.50;;;;;;;;;;5082944;28;24429;-53
2022/04/04 05:37:35;;;;;;;8.10;7.37;;;;;;;;;;5067609;28;24976;-53
2022/04/04 05:40:01;;;;;;;7.90;7.20;;;;;;;;;;5067069;28;24448;-53
2022/04/04 05:42:28;;;;;;;7.60;6.90;;;;;;;;;;5066847;28;24407;-53
2022/04/04 05:44:53;;;;;;;8.00;7.28;;;;;;;;;;5067323;28;24816;-53
2022/04/04 05:47:20;;;;;;;7.50;6.80;;;;;;;;;;5066292;28;24999;-53
2022/04/04 05:49:45;;;;;;;8.40;7.70;;;;;;;;;;5066685;28;24489;-53
2022/04/04 05:52:10;;;;;;;7.90;7.10;;;;;;;;;;5066756;28;24429;-53
2022/04/04 05:54:53;;;;;;;8.20;7.50;;;;;;;;;;5066863;28;24932;-53
2022/04/04 05:57:18;;;;;;;8.48;7.72;;;;;;;;;;5077789;28;24509;-53
2022/04/04 05:59:43;;;;;;;8.37;7.57;;;;;;;;;;5087282;28;24501;-54
2022/04/04 06:02:08;;;;;;;8.25;7.55;;;;;;;;;;5086802;28;24414;-53
2022/04/04 06:04:34;;;;;;;8.00;7.30;;;;;;;;;;5087383;28;24880;-53
2022/04/04 06:06:59;;;;;;;8.00;7.30;;;;;;;;;;5083126;28;24413;-53
2022/04/04 06:09:24;;;;;;;8.50;7.70;;;;;;;;;;5087003;28;24407;-53
2022/04/04 06:11:49;;;;;;;8.27;7.47;;;;;;;;;;5087124;28;24920;-53
2022/04/04 06:14:14;;;;;;;8.40;7.60;;;;;;;;;;5074509;28;24403;-53
2022/04/04 06:16:40;;;;;;;8.10;7.40;;;;;;;;;;5073498;28;24520;-54
2022/04/04 06:19:05;;;;;;;8.07;7.37;;;;;;;;;;5068684;28;24429;-54
2022/04/04 06:21:30;;;;;;;8.10;7.40;;;;;;;;;;5066781;28;24607;-53
2022/04/04 06:23:55;;;;;;;9.57;8.10;;;;;;;;;;5067028;28;24418;-53
2022/04/04 06:26:21;;;;;;;8.80;8.00;;;;;;;;;;5066378;28;24395;-53
2022/04/04 06:28:47;;;;;;;8.40;7.60;;;;;;;;;;5073381;28;24433;-53
2022/04/04 06:31:12;;;;;;;10.40;9.40;;;;;;;;;;5083761;28;24448;-53
2022/04/04 06:33:39;;;;;;;9.40;8.50;;;;;;;;;;5085987;28;24444;-53
2022/04/04 06:36:04;;;;;;;9.00;8.10;;;;;;;;;;5087691;28;24405;-53
2022/04/04 06:38:29;;;;;;;9.50;8.70;;;;;;;;;;5088670;28;24471;-53
2022/04/04 06:40:55;;;;;;;10.55;9.45;;;;;;;;;;5076174;28;24449;-53
2022/04/04 06:43:20;;;;;;;10.10;9.20;;;;;;;;;;5073364;28;24453;-53
2022/04/04 06:45:45;;;;;;;9.63;8.73;;;;;;;;;;5065990;28;25027;-53
2022/04/04 06:48:11;;;;;;;10.60;9.03;;;;;;;;;;5063397;28;24391;-53
2022/04/04 06:50:36;;;;;;;10.80;9.10;;;;;;;;;;5076395;28;24414;-54
2022/04/04 06:53:02;;;;;;;9.90;8.90;;;;;;;;;;5086100;28;24405;-53
2022/04/04 06:55:28;;;;;;;10.30;9.20;;;;;;;;;;5086542;28;24394;-53
2022/04/04 06:57:53;;;;;;;8.88;8.07;;;;;;;;;;5087227;28;24919;-54
2022/04/04 07:00:18;;;;;;;10.20;8.37;;;;;;;;;;5089592;28;24426;-53
2022/04/04 07:02:44;;;;;;;10.15;9.15;;;;;;;;;;5088132;28;24418;-53
2022/04/04 07:05:10;;;;;;;9.95;8.82;;;;;;;;;;5089741;28;24386;-53
2022/04/04 07:07:35;;;;;;;8.50;7.70;;;;;;;;;;5089480;28;24394;-53
2022/04/04 07:10:01;;;;;;;9.00;8.20;;;;;;;;;;5090341;28;24415;-53
2022/04/04 07:12:27;;;;;;;9.40;8.50;;;;;;;;;;5089315;28;24514;-53
2022/04/04 07:14:52;;;;;;;8.70;7.90;;;;;;;;;;5087556;28;24421;-53
2022/04/04 07:17:17;;;;;;;8.53;7.77;;;;;;;;;;5089324;28;24397;-53
2022/04/04 07:19:43;;;;;;;8.17;7.37;;;;;;;;;;5089755;28;24428;-53
2022/04/04 07:22:09;;;;;;;7.53;6.90;;;;;;;;;;5089821;28;24540;-53
2022/04/04 07:24:34;;;;;;;7.78;6.97;;;;;;;;;;5090240;28;24780;-53
2022/04/04 07:27:00;;;;;;;7.07;6.47;;;;;;;;;;5088403;28;24429;-52
2022/04/04 07:29:25;;;;;;;7.45;6.72;;;;;;;;;;5087132;28;24429;-53
2022/04/04 07:31:51;;;;;;;7.30;6.70;;;;;;;;;;5089061;28;24522;-53
2022/04/04 07:34:16;;;;;;;7.20;6.57;;;;;;;;;;5089097;28;24486;-53
2022/04/04 07:36:41;;;;;;;7.40;6.70;;;;;;;;;;5089279;28;24402;-53
2022/04/04 07:39:07;;;;;;;7.03;6.43;;;;;;;;;;5089433;28;24462;-52
2022/04/04 07:41:32;;;;;;;7.47;6.68;;;;;;;;;;5086554;28;24998;-52
2022/04/04 07:43:57;;;;;;;7.97;7.27;;;;;;;;;;5089007;28;25050;-52
2022/04/04 07:46:22;;;;;;;7.97;7.28;;;;;;;;;;5088935;28;24406;-53
2022/04/04 07:48:48;;;;;;;7.10;6.40;;;;;;;;;;5088833;28;24403;-53
2022/04/04 07:51:13;;;;;;;7.47;6.87;;;;;;;;;;5087338;28;24767;-53
2022/04/04 07:53:38;;;;;;;7.30;6.70;;;;;;;;;;5089281;28;24804;-53
2022/04/04 07:56:04;;;;;;;8.30;6.90;;;;;;;;;;5089008;28;24749;-52
2022/04/04 07:58:29;;;;;;;8.57;7.77;;;;;;;;;;5086745;28;24396;-53
2022/04/04 08:00:54;;;;;;;8.47;7.77;;;;;;;;;;5088591;28;24860;-53
2022/04/04 08:03:21;;;;;;;8.00;7.27;;;;;;;;;;5079986;28;24410;-53
2022/04/04 08:05:47;;;;;;;7.90;7.30;;;;;;;;;;5068667;28;24820;-54
2022/04/04 08:08:12;;;;;;;8.10;7.50;;;;;;;;;;5068445;28;24389;-51
2022/04/04 08:10:37;;;;;;;8.05;7.40;;;;;;;;;;5067436;28;24395;-51
2022/04/04 08:13:03;;;;;;;8.73;7.85;;;;;;;;;;5068907;28;24452;-50
2022/04/04 08:15:28;;;;;;;8.17;7.37;;;;;;;;;;5087995;28;24951;-51
2022/04/04 08:17:53;;;;;;;8.10;7.40;;;;;;;;;;5068253;28;24704;-51
2022/04/04 08:20:18;;;;;;;7.55;6.95;;;;;;;;;;5068320;28;24515;-52
2022/04/04 08:22:44;;;;;;;8.60;7.83;;;;;;;;;;5068332;28;24464;-52
2022/04/04 08:25:11;;;;;;;8.65;7.85;;;;;;;;;;5067789;28;24450;-52
2022/04/04 08:27:36;;;;;;;7.90;7.20;;;;;;;;;;5080064;28;24430;-52
2022/04/04 08:30:04;;;;;;;8.10;7.40;;;;;;;;;;5088366;28;24497;-52
2022/04/04 08:32:30;;;;;;;8.50;7.80;;;;;;;;;;5082201;28;24410;-53
2022/04/04 08:34:55;;;;;;;8.50;7.60;;;;;;;;;;5087664;28;24401;-52
2022/04/04 08:37:20;;;;;;;7.97;7.27;;;;;;;;;;5082231;28;24482;-52
2022/04/04 08:39:47;;;;;;;8.60;7.80;;;;;;;;;;5067157;28;24987;-52
2022/04/04 08:42:13;;;;;;;8.55;7.85;;;;;;;;;;5066993;28;24417;-53
2022/04/04 08:44:39;;;;;;;8.70;8.00;;;;;;;;;;5067207;28;24422;-52
2022/04/04 08:47:05;;;;;;;9.77;8.98;;;;;;;;;;5066962;28;24395;-52
2022/04/04 08:49:31;;;;;;;8.25;7.60;;;;;;;;;;5067756;28;24796;-51
2022/04/04 08:51:56;;;;;;;8.40;7.70;;;;;;;;;;5067865;28;25038;-52
2022/04/04 08:54:21;;;;;;;8.30;7.60;;;;;;;;;;5068007;28;24675;-52
2022/04/04 08:56:46;;;;;;;7.83;7.23;;;;;;;;;;5065548;28;24852;-52
2022/04/04 08:59:11;;;;;;;7.90;7.30;;;;;;;;;;5067883;28;24405;-52
2022/04/04 09:01:37;;;;;;;7.80;7.20;;;;;;;;;;5067026;28;25077;-52
2022/04/04 09:04:04;;;;;;;8.57;7.77;;;;;;;;;;5067297;28;24379;-52
2022/04/04 09:06:30;;;;;;;7.50;6.90;;;;;;;;;;5066916;28;24798;-52
2022/04/04 09:08:56;;;;;;;7.83;7.13;;;;;;;;;;5067435;28;25038;-52
2022/04/04 09:11:21;;;;;;;8.30;6.40;;;;;;;;;;5067416;28;24479;-51
2022/04/04 09:14:01;;;;;;;7.67;7.07;;;;;;;;;;5083794;28;24499;-51
2022/04/04 09:16:26;;;;;;;7.60;6.90;;;;;;;;;;5087304;28;24409;-52
2022/04/04 09:18:51;;;;;;;7.00;6.40;;;;;;;;;;5087139;28;24471;-51
2022/04/04 09:21:20;;;;;;;7.10;6.50;;;;;;;;;;5087268;28;24413;-54
2022/04/04 09:23:48;;;;;;;6.53;6.03;;;;;;;;;;5087179;28;24775;-52
2022/04/04 09:26:33;;;;;;;6.40;5.80;;;;;;;;;;5085646;28;24476;-53
2022/04/04 09:28:59;;;;;;;6.32;5.82;;;;;;;;;;5086961;28;24421;-53
2022/04/04 09:31:24;;;;;;;6.82;6.22;;;;;;;;;;5086791;28;24401;-53
2022/04/04 09:33:50;;;;;;;7.20;6.60;;;;;;;;;;5087677;28;24453;-52
2022/04/04 09:36:15;;;;;;;7.47;6.88;;;;;;;;;;5084934;28;24433;-53
2022/04/04 09:38:53;;;;;;;7.00;6.50;;;;;;;;;;5086573;28;24448;-52
2022/04/04 09:41:22;;;;;;;7.05;6.45;;;;;;;;;;5086727;28;24490;-53
2022/04/04 09:43:54;;;;;;;6.85;6.32;;;;;;;;;;5070508;28;24480;-53
2022/04/04 09:46:20;;;;;;;6.70;6.20;;;;;;;;;;5066874;28;24492;-53
2022/04/04 09:49:04;;;;;;;6.90;6.30;;;;;;;;;;5066717;28;24628;-53
2022/04/04 09:51:33;;;;;;;6.90;6.30;;;;;;;;;;5066528;28;24944;-53
2022/04/04 09:54:03;;;;;;;6.30;5.90;;;;;;;;;;5066126;28;24430;-52
2022/04/04 09:56:28;;;;;;;7.00;5.88;;;;;;;;;;5066494;28;24472;-53
2022/04/04 09:58:54;;;;;;;5.60;5.10;;;;;;;;;;5062604;28;24462;-53
2022/04/04 10:01:19;;;;;;;5.70;5.20;;;;;;;;;;5066653;28;24422;-53
2022/04/04 10:03:45;;;;;;;7.03;6.00;;;;;;;;;;5066365;28;24796;-53
2022/04/04 10:06:12;;;;;;;5.50;5.10;;;;;;;;;;5066705;28;24649;-52
2022/04/04 10:08:37;;;;;;;5.72;5.20;;;;;;;;;;5066590;28;24476;-53
2022/04/04 10:11:04;;;;;;;6.00;5.50;;;;;;;;;;5066415;28;24411;-53
2022/04/04 10:13:29;;;;;;;5.95;5.45;;;;;;;;;;5066318;28;24390;-53
2022/04/04 10:15:54;;;;;;;6.40;5.30;;;;;;;;;;5066640;28;24947;-53
2022/04/04 10:18:19;;;;;;;5.40;5.00;;;;;;;;;;5073491;28;24422;-52
2022/04/04 10:20:53;;;;;;;5.78;5.28;;;;;;;;;;5086951;28;24418;-52
2022/04/04 10:23:18;;;;;;;6.45;5.93;;;;;;;;;;5087203;28;25009;-53
2022/04/04 10:25:44;;;;;;;6.97;6.43;;;;;;;;;;5087317;28;24399;-53
2022/04/04 10:28:09;;;;;;;6.30;5.80;;;;;;;;;;5086047;28;24805;-52
2022/04/04 10:30:35;;;;;;;6.10;5.50;;;;;;;;;;5084107;28;24426;-53
2022/04/04 10:33:01;;;;;;;8.05;6.60;;;;;;;;;;5087940;28;24790;-53
2022/04/04 10:35:28;;;;;;;6.22;5.72;;;;;;;;;;5090384;28;24402;-53
2022/04/04 10:37:56;;;;;;;6.70;6.20;;;;;;;;;;5090287;28;24406;-53
2022/04/04 10:40:25;;;;;;;6.68;6.07;;;;;;;;;;5090454;28;25025;-52
2022/04/04 10:43:01;;;;;;;6.07;5.57;;;;;;;;;;5088706;28;24422;-53
2022/04/04 10:45:27;;;;;;;6.20;5.70;;;;;;;;;;5070407;28;24505;-53
2022/04/04 10:48:01;;;;;;;5.63;5.13;;;;;;;;;;5070286;28;24988;-52
2022/04/04 10:50:32;;;;;;;5.30;4.83;;;;;;;;;;5070015;28;24387;-53
2022/04/04 10:52:59;;;;;;;4.95;4.60;;;;;;;;;;5070108;28;24441;-53
2022/04/04 10:55:27;;;;;;;5.97;5.37;;;;;;;;;;5070819;28;24596;-52
2022/04/04 10:57:59;;;;;;;5.72;5.22;;;;;;;;;;5069586;28;24460;-52
2022/04/04 11:00:30;;;;;;;5.30;4.80;;;;;;;;;;5072211;28;24439;-53
2022/04/04 11:02:55;;;;;;;5.50;5.10;;;;;;;;;;5092252;28;24437;-53
2022/04/04 11:08:05;;;;;;;5.57;5.18;;;;;;;;;;5068583;28;24386;-53
2022/04/04 11:10:47;;;;;;;6.00;5.40;;;;;;;;;;5070035;28;24861;-52
2022/04/04 11:13:15;;;;;;;6.13;5.40;;;;;;;;;;5078725;28;24418;-53
2022/04/04 11:15:44;;;;;;;6.72;6.15;;;;;;;;;;5087738;28;24431;-53
2022/04/04 11:18:10;;;;;;;6.10;5.60;;;;;;;;;;5086044;28;24486;-53
2022/04/04 11:20:36;;;;;;;7.43;6.40;;;;;;;;;;5086855;28;24430;-52
2022/04/04 11:23:08;;;;;;;6.60;6.10;;;;;;;;;;5089196;28;24404;-53
2022/04/04 11:25:37;;;;;;;6.57;5.97;;;;;;;;;;5068886;28;25028;-52
2022/04/04 11:28:02;;;;;;;6.68;6.07;;;;;;;;;;5068982;28;24573;-52
2022/04/04 11:30:27;;;;;;;6.75;6.15;;;;;;;;;;5076051;28;24509;-53
2022/04/04 11:32:59;;;;;;;6.03;5.63;;;;;;;;;;5069920;28;24909;-53
2022/04/04 11:35:27;;;;;;;6.20;5.70;;;;;;;;;;5069371;28;24398;-53
2022/04/04 11:38:11;;;;;;;9.30;6.85;;;;;;;;;;5069058;28;24423;-53
2022/04/04 11:40:38;;;;;;;7.40;6.80;;;;;;;;;;5076600;28;24456;-52
2022/04/04 11:43:13;;;;;;;7.53;6.90;;;;;;;;;;5074967;28;24417;-53
2022/04/04 11:45:39;;;;;;;7.18;6.57;;;;;;;;;;5067774;28;24414;-53
2022/04/04 11:48:06;;;;;;;7.38;6.68;;;;;;;;;;5069090;28;24397;-52
2022/04/04 11:50:32;;;;;;;7.90;7.20;;;;;;;;;;5067771;28;24508;-53
2022/04/04 11:53:00;;;;;;;8.27;7.57;;;;;;;;;;5077214;28;24518;-53
2022/04/04 11:55:27;;;;;;;8.60;7.90;;;;;;;;;;5090516;28;24417;-53
2022/04/04 11:58:00;;;;;;;8.18;7.40;;;;;;;;;;5089216;28;24448;-53
2022/04/04 12:00:27;;;;;;;7.50;6.90;;;;;;;;;;5088628;28;24536;-52
2022/04/04 12:02:53;;;;;;;8.10;7.40;;;;;;;;;;5087639;28;24413;-53
2022/04/04 12:05:23;;;;;;;7.97;7.37;;;;;;;;;;5075579;28;24868;-53
2022/04/04 12:07:49;;;;;;;7.53;6.93;;;;;;;;;;5067636;28;24411;-52
2022/04/04 12:10:22;;;;;;;8.18;7.40;;;;;;;;;;5070172;28;24450;-53
2022/04/04 12:12:55;;;;;;;8.50;7.60;;;;;;;;;;5073476;28;24991;-53
2022/04/04 12:15:27;;;;;;;8.73;7.93;;;;;;;;;;5082088;28;24421;-53
2022/04/04 12:17:52;;;;;;;7.50;6.90;;;;;;;;;;5077876;28;24418;-53
2022/04/04 12:20:17;;;;;;;8.10;7.40;;;;;;;;;;5078188;28;24415;-54
2022/04/04 12:25:26;;;;;;;7.28;6.68;;;;;;;;;;5072769;28;24414;-53
2022/04/04 12:27:56;;;;;;;8.20;7.50;;;;;;;;;;5074315;28;24521;-52
2022/04/04 12:30:27;;;;;;;7.60;7.00;;;;;;;;;;5070996;28;24683;-53
2022/04/04 12:32:53;;;;;;;8.00;7.40;;;;;;;;;;5071444;28;24556;-53
2022/04/04 12:35:20;;;;;;;8.13;7.53;;;;;;;;;;5067995;28;24509;-53
2022/04/04 12:37:45;;;;;;;7.80;7.20;;;;;;;;;;5068592;28;24530;-53
2022/04/04 12:40:13;;;;;;;8.03;7.40;;;;;;;;;;5079802;28;24425;-53
2022/04/04 12:42:38;;;;;;;8.15;7.47;;;;;;;;;;5080477;28;24419;-52
2022/04/04 12:45:04;;;;;;;8.30;7.60;;;;;;;;;;5076854;28;24413;-52
2022/04/04 12:47:29;;;;;;;8.40;7.60;;;;;;;;;;5067716;28;24514;-53
2022/04/04 12:50:14;;;;;;;8.37;7.77;;;;;;;;;;5067009;28;24762;-53
2022/04/04 12:52:59;;;;;;;8.50;7.90;;;;;;;;;;5072171;28;24978;-53
2022/04/04 12:55:24;;;;;;;8.05;7.30;;;;;;;;;;5083033;28;24423;-53
2022/04/04 12:57:49;;;;;;;8.38;7.78;;;;;;;;;;5067358;28;24496;-53
2022/04/04 13:00:25;;;;;;;8.40;7.70;;;;;;;;;;5069592;28;24429;-53
2022/04/04 13:02:50;;;;;;;8.60;7.90;;;;;;;;;;5082945;28;24506;-53
2022/04/04 13:05:16;;;;;;;8.20;7.50;;;;;;;;;;5069102;28;25098;-54
2022/04/04 13:07:47;;;;;;;8.38;7.68;;;;;;;;;;5082260;28;25083;-53
2022/04/04 13:10:13;;;;;;;10.55;7.90;;;;;;;;;;5105386;28;24426;-53
2022/04/04 13:12:41;;;;;;;8.30;7.50;;;;;;;;;;5090042;28;24438;-52
2022/04/04 13:15:07;;;;;;;8.02;7.22;;;;;;;;;;5067142;28;24746;-52
2022/04/04 13:17:34;;;;;;;8.97;8.17;;;;;;;;;;5066752;28;24968;-53
2022/04/04 13:19:59;;;;;;;7.80;7.20;;;;;;;;;;5067220;28;24438;-53
2022/04/04 13:22:24;;;;;;;8.18;7.57;;;;;;;;;;5069517;28;24454;-53
2022/04/04 13:24:49;;;;;;;8.00;7.40;;;;;;;;;;5092634;28;24406;-52
2022/04/04 13:27:20;;;;;;;7.07;6.47;;;;;;;;;;5073589;28;24413;-53
2022/04/04 13:29:45;;;;;;;7.40;6.90;;;;;;;;;;5086670;28;24967;-54
2022/04/04 13:32:10;;;;;;;7.60;7.00;;;;;;;;;;5073529;28;24414;-53
2022/04/04 13:34:35;;;;;;;7.80;7.20;;;;;;;;;;5079980;28;24804;-53
2022/04/04 13:37:00;;;;;;;7.70;7.00;;;;;;;;;;5079266;28;24465;-53
2022/04/04 13:39:25;;;;;;;8.50;7.70;;;;;;;;;;5083705;28;24430;-53
2022/04/04 13:41:51;;;;;;;7.38;6.80;;;;;;;;;;5077446;28;24721;-53
2022/04/04 13:44:16;;;;;;;7.97;7.30;;;;;;;;;;5075841;28;24565;-53
2022/04/04 13:46:41;;;;;;;7.90;7.30;;;;;;;;;;5066646;28;24411;-53
2022/04/04 13:49:06;;;;;;;7.70;7.10;;;;;;;;;;5085742;28;24914;-55
2022/04/04 13:51:31;;;;;;;8.30;7.60;;;;;;;;;;5077015;28;24411;-53
2022/04/04 13:53:58;;;;;;;7.83;7.20;;;;;;;;;;5075229;28;24497;-53
2022/04/04 13:56:24;;;;;;;7.50;7.00;;;;;;;;;;5087180;28;24420;-53
2022/04/04 13:58:49;;;;;;;8.20;7.50;;;;;;;;;;5072335;28;24458;-53
2022/04/04 14:01:15;;;;;;;7.68;6.97;;;;;;;;;;5067905;28;24483;-53
2022/04/04 14:03:41;;;;;;;8.40;7.60;;;;;;;;;;5068687;28;24982;-53
2022/04/04 14:06:06;;;;;;;6.90;6.40;;;;;;;;;;5082380;28;24513;-54
2022/04/04 14:08:32;;;;;;;8.90;8.10;;;;;;;;;;5085922;28;24413;-53
2022/04/04 14:10:58;;;;;;;7.70;7.10;;;;;;;;;;5086385;28;24807;-53
2022/04/04 14:13:23;;;;;;;7.93;7.22;;;;;;;;;;5086241;28;25039;-53
2022/04/04 14:15:50;;;;;;;8.45;7.65;;;;;;;;;;5086645;28;24397;-52
2022/04/04 14:18:15;;;;;;;6.90;6.40;;;;;;;;;;5086043;28;24402;-52
2022/04/04 14:20:41;;;;;;;7.60;7.00;;;;;;;;;;5086345;28;24827;-53
2022/04/04 14:23:06;;;;;;;8.13;7.43;;;;;;;;;;5086510;28;24451;-52
2022/04/04 14:25:31;;;;;;;7.50;6.90;;;;;;;;;;5086727;28;24784;-52
2022/04/04 14:27:56;;;;;;;7.40;6.70;;;;;;;;;;5085987;28;24505;-52
2022/04/04 14:30:22;;;;;;;7.33;6.73;;;;;;;;;;5086179;28;24986;-54
2022/04/04 14:32:47;;;;;;;7.20;6.60;;;;;;;;;;5090916;28;24653;-53
2022/04/04 14:35:13;;;;;;;7.90;7.10;;;;;;;;;;5091374;28;24418;-53
2022/04/04 14:37:38;;;;;;;7.20;6.70;;;;;;;;;;5087769;28;24404;-53
2022/04/04 14:40:03;;;;;;;6.70;6.10;;;;;;;;;;5103435;28;24398;-53
2022/04/04 14:42:28;;;;;;;6.30;5.80;;;;;;;;;;5082109;28;25126;-52
2022/04/04 14:44:54;;;;;;;7.45;6.75;;;;;;;;;;5069772;28;24765;-51